Time;durP1;ratioP1;P1;durP2;ratioP2;P2;SDS_P1;SDS_P2;PMS_P1;PMS_P2;Temp;Humidity;BMP_temperature;BMP_pressure;BME280_temperature;BME280_humidity;BME280_pressure;Samples;Min_cycle;Max_cycle;Signal;HPM_P1;HPM_P2
2022/01/14 00:02:03;;;;;;;;;1.75;1.00;;;;;3.62;71.36;103434.19;5047984;28;45497;-84
2022/01/14 00:04:29;;;;;;;;;4.00;2.00;;;;;3.48;70.12;103408.19;5042396;28;45600;-83
2022/01/14 00:06:55;;;;;;;;;2.00;2.00;;;;;3.52;71.04;103411.94;5061680;28;45398;-83
2022/01/14 00:09:20;;;;;;;;;2.75;2.50;;;;;3.42;70.75;103392.25;5042986;28;47273;-83
2022/01/14 00:11:53;;;;;;;;;2.00;1.00;;;;;3.37;71.00;103391.00;5042204;28;45355;-83
2022/01/14 00:14:25;;;;;;;;;1.00;1.00;;;;;3.67;71.39;103425.13;5060771;28;45409;-83
2022/01/14 00:16:52;;;;;;;;;4.50;3.25;;;;;3.66;71.08;103425.91;5061399;28;45370;-83
2022/01/14 00:19:18;;;;;;;;;4.50;3.00;;;;;3.60;70.80;103404.81;5042687;28;48470;-82
2022/01/14 00:21:44;;;;;;;;;1.25;1.25;;;;;3.65;71.22;103406.09;5043888;28;45538;-83
2022/01/14 00:32:13;;;;;;;;;4.00;2.50;;;;;3.76;71.51;103420.72;5069715;28;45420;-83
2022/01/14 00:34:38;;;;;;;;;2.00;2.00;;;;;3.72;71.06;103426.41;5060944;28;45377;-83
2022/01/14 00:37:30;;;;;;;;;2.00;2.00;;;;;3.72;70.44;103430.66;5043230;28;45657;-83
2022/01/14 00:39:57;;;;;;;;;2.25;1.75;;;;;3.50;70.15;103408.31;5060805;28;45354;-83
2022/01/14 00:42:31;;;;;;;;;2.00;2.00;;;;;3.33;71.07;103389.81;5066894;28;45425;-83
2022/01/14 00:44:56;;;;;;;;;4.00;1.00;;;;;3.50;71.79;103411.81;5078660;28;45317;-83
2022/01/14 00:47:21;;;;;;;;;2.75;2.75;;;;;3.37;71.51;103381.56;5066368;28;45309;-82
2022/01/14 00:49:47;;;;;;;;;1.25;1.25;;;;;3.66;71.06;103415.63;5084194;28;46262;-83
2022/01/14 00:52:12;;;;;;;;;2.00;0.00;;;;;3.68;70.59;103417.53;5054122;28;45400;-82
2022/01/14 00:55:05;;;;;;;;;3.25;3.25;;;;;3.70;71.24;103412.50;5064288;28;45402;-83
2022/01/14 01:00:20;;;;;;;;;1.75;1.50;;;;;3.67;71.44;103394.22;5064156;28;45343;-83
2022/01/14 01:02:45;;;;;;;;;1.00;1.00;;;;;3.66;70.85;103406.22;5064064;28;45405;-83
2022/01/14 01:05:13;;;;;;;;;4.00;3.00;;;;;3.64;71.17;103396.53;5045933;28;45421;-83
2022/01/14 01:07:40;;;;;;;;;3.00;1.75;;;;;3.65;70.10;103413.81;5064331;28;45492;-83
2022/01/14 01:10:06;;;;;;;;;1.75;1.75;;;;;3.57;71.23;103420.00;5063881;28;45457;-83
2022/01/14 01:12:50;;;;;;;;;3.50;1.00;;;;;3.37;71.73;103380.69;5042512;28;45416;-83
2022/01/14 01:15:17;;;;;;;;;5.25;2.25;;;;;3.26;71.63;103377.22;5045243;28;45542;-83
2022/01/14 01:17:43;;;;;;;;;2.00;1.00;;;;;3.22;71.36;103370.03;5045247;28;45418;-83
2022/01/14 01:20:12;;;;;;;;;4.00;3.00;;;;;3.34;71.00;103401.91;5045010;28;46091;-84
2022/01/14 01:22:37;;;;;;;;;1.00;1.00;;;;;3.29;71.60;103409.28;5076676;28;45397;-83
2022/01/14 01:25:05;;;;;;;;;2.00;0.75;;;;;3.33;71.54;103417.25;5086797;28;45354;-83
2022/01/14 01:27:37;;;;;;;;;2.75;2.75;;;;;3.21;71.71;103401.72;5085058;28;45484;-83
2022/01/14 01:30:50;;;;;;;;;2.00;2.00;;;;;3.12;72.07;103370.94;5084009;28;46365;-83
2022/01/14 01:32:58;;;;;;;;;1.25;0.75;;;;;3.23;71.64;103375.31;5063067;28;45414;-83
2022/01/14 01:35:24;;;;;;;;;1.25;1.25;;;;;3.37;72.50;103391.00;5063477;28;45473;-83
2022/01/14 01:37:50;;;;;;;;;1.75;1.75;;;;;3.47;71.80;103401.25;5085175;28;45330;-83
2022/01/14 01:40:16;;;;;;;;;9.00;3.00;;;;;3.24;72.24;103360.75;5086997;28;45428;-82
2022/01/14 01:42:43;;;;;;;;;3.00;3.00;;;;;3.52;71.91;103402.50;5083312;28;45331;-83
2022/01/14 01:45:11;;;;;;;;;3.25;3.25;;;;;3.23;72.46;103358.94;5085423;28;45345;-83
2022/01/14 01:47:38;;;;;;;;;5.50;3.50;;;;;3.56;72.13;103408.84;5065939;28;45585;-83
2022/01/14 01:50:16;;;;;;;;;1.00;1.00;;;;;3.39;72.04;103373.97;5065548;28;47012;-83
2022/01/14 01:52:42;;;;;;;;;2.00;2.00;;;;;3.52;72.08;103412.81;5083720;28;45387;-83
2022/01/14 01:55:09;;;;;;;;;2.25;2.25;;;;;3.34;72.59;103372.72;5083646;28;45392;-82
2022/01/14 01:57:35;;;;;;;;;1.50;1.50;;;;;3.57;71.98;103415.78;5082667;28;45597;-83
2022/01/14 02:00:04;;;;;;;;;1.00;1.00;;;;;3.42;71.92;103389.66;5083443;28;45998;-83
2022/01/14 02:02:29;;;;;;;;;3.75;3.00;;;;;3.51;71.99;103411.03;5082296;28;45278;-83
2022/01/14 02:05:01;;;;;;;;;1.25;1.25;;;;;3.50;72.12;103403.19;5083482;28;45369;-82
2022/01/14 02:07:45;;;;;;;;;3.25;1.25;;;;;3.51;71.05;103397.25;5084094;28;45357;-83
2022/01/14 02:10:29;;;;;;;;;2.00;1.00;;;;;3.46;72.02;103388.25;5083414;28;45398;-83
2022/01/14 02:13:16;;;;;;;;;3.50;2.00;;;;;3.49;71.98;103399.69;5075422;28;45419;-83
2022/01/14 02:16:15;;;;;;;;;3.50;3.50;;;;;3.13;71.98;103335.03;5063155;28;45493;-83
2022/01/14 02:24:20;;;;;;;;;9.50;3.75;;;;;3.11;71.62;103315.09;5083400;28;45342;-82
2022/01/14 02:26:54;;;;;;;;;2.25;2.25;;;;;3.50;72.11;103382.56;5083422;28;45448;-82
2022/01/14 02:29:21;;;;;;;;;2.75;2.75;;;;;3.51;71.51;103382.69;5084017;28;45287;-82
2022/01/14 02:31:47;;;;;;;;;1.75;1.50;;;;;3.32;72.11;103349.41;5060645;28;47286;-83
2022/01/14 02:34:14;;;;;;;;;7.00;2.50;;;;;3.51;72.08;103377.53;5064313;28;46285;-83
2022/01/14 02:36:45;;;;;;;;;2.00;2.00;;;;;3.34;71.57;103340.13;5083099;28;45445;-83
2022/01/14 02:39:12;;;;;;;;;1.00;1.00;;;;;3.46;71.34;103360.81;5083438;28;45368;-83
2022/01/14 02:41:41;;;;;;;;;3.50;2.75;;;;;3.49;71.89;103358.47;5076860;28;48266;-83
2022/01/14 02:44:23;;;;;;;;;2.00;2.00;;;;;3.04;71.20;103282.81;5057288;28;45328;-82
2022/01/14 02:46:53;;;;;;;;;2.00;2.00;;;;;3.42;71.58;103338.16;5076489;28;45334;-82
2022/01/14 02:49:21;;;;;;;;;4.25;2.00;;;;;3.42;71.03;103336.50;5082920;28;45516;-82
2022/01/14 02:51:46;;;;;;;;;1.25;1.25;;;;;3.29;71.02;103318.25;5074070;28;46313;-82
2022/01/14 02:54:22;;;;;;;;;0.50;0.50;;;;;3.55;71.16;103363.22;5081501;28;45647;-82
2022/01/14 02:56:55;;;;;;;;;1.50;1.50;;;;;3.57;71.33;103364.25;5083044;28;45429;-82
2022/01/14 02:59:21;;;;;;;;;4.25;3.00;;;;;3.50;70.27;103351.66;5064541;28;45508;-82
2022/01/14 03:01:49;;;;;;;;;2.75;1.75;;;;;3.55;71.74;103364.13;5059073;28;47804;-82
2022/01/14 03:04:17;;;;;;;;;2.50;1.00;;;;;3.46;70.91;103350.50;5043729;28;45591;-82
2022/01/14 03:06:43;;;;;;;;;2.00;1.75;;;;;3.31;70.84;103320.97;5044039;28;45500;-83
2022/01/14 03:09:09;;;;;;;;;4.00;2.00;;;;;3.44;71.27;103334.03;5061891;28;45368;-82
2022/01/14 03:11:47;;;;;;;;;1.00;1.00;;;;;3.49;70.89;103345.59;5061653;28;45307;-82
2022/01/14 03:14:21;;;;;;;;;3.25;2.00;;;;;3.35;70.60;103325.56;5060818;28;45411;-82
2022/01/14 03:16:48;;;;;;;;;2.00;2.00;;;;;3.18;71.97;103299.38;5082363;28;45358;-82
2022/01/14 03:19:21;;;;;;;;;1.75;1.50;;;;;2.98;71.18;103274.59;5082605;28;45409;-82
2022/01/14 03:22:18;;;;;;;;;3.00;3.00;;;;;3.26;70.88;103326.66;5077427;28;45754;-82
2022/01/14 03:27:15;;;;;;;;;2.75;2.75;;;;;2.83;71.25;103256.25;5061822;28;45430;-82
2022/01/14 03:29:42;;;;;;;;;3.25;1.75;;;;;2.98;70.42;103274.59;5043595;28;45348;-82
2022/01/14 03:32:07;;;;;;;;;5.50;2.25;;;;;3.23;71.10;103334.13;5061170;28;45453;-81
2022/01/14 03:34:33;;;;;;;;;2.75;2.75;;;;;3.01;70.96;103298.94;5081472;28;45367;-82
2022/01/14 03:36:59;;;;;;;;;2.00;2.00;;;;;3.03;71.42;103307.66;5063222;28;45471;-82
2022/01/14 03:39:24;;;;;;;;;3.00;3.00;;;;;2.93;71.28;103292.22;5043701;28;45559;-82
2022/01/14 03:41:50;;;;;;;;;3.75;3.50;;;;;3.02;71.01;103310.09;5053367;28;46322;-82
2022/01/14 03:44:17;;;;;;;;;4.00;4.00;;;;;3.01;71.01;103314.38;5058760;28;45389;-82
2022/01/14 03:46:43;;;;;;;;;7.50;3.50;;;;;2.86;71.10;103297.66;5061573;28;45353;-82
2022/01/14 03:49:09;;;;;;;;;2.50;2.50;;;;;3.05;70.74;103336.09;5061593;28;45357;-82
2022/01/14 03:51:34;;;;;;;;;2.75;2.75;;;;;2.89;71.47;103313.34;5060645;28;46563;-82
2022/01/14 03:53:59;;;;;;;;;5.75;3.00;;;;;2.96;71.17;103325.94;5076893;28;45280;-82
2022/01/14 03:56:25;;;;;;;;;2.75;2.50;;;;;2.99;71.36;103336.50;5081869;28;45331;-83
2022/01/14 03:58:52;;;;;;;;;2.25;2.25;;;;;3.04;71.87;103334.31;5063931;28;45402;-82
2022/01/14 04:01:19;;;;;;;;;3.00;3.00;;;;;3.04;71.31;103330.03;5081663;28;45678;-82
2022/01/14 04:03:46;;;;;;;;;7.00;3.50;;;;;2.83;71.21;103287.13;5039703;28;45482;-81
2022/01/14 04:06:12;;;;;;;;;4.00;2.25;;;;;3.03;71.64;103323.09;5057962;28;45420;-82
2022/01/14 04:08:38;;;;;;;;;4.00;1.00;;;;;2.76;71.00;103284.03;5043977;28;45383;-82
2022/01/14 04:11:04;;;;;;;;;1.75;1.75;;;;;2.98;71.69;103323.50;5061226;28;46025;-82
2022/01/14 04:13:45;;;;;;;;;7.00;3.25;;;;;2.77;72.27;103282.38;5072033;28;45387;-81
2022/01/14 04:16:12;;;;;;;;;2.25;2.25;;;;;3.04;71.30;103324.00;5081284;28;45536;-82
2022/01/14 04:18:38;;;;;;;;;3.00;3.00;;;;;3.08;71.46;103322.56;5080168;28;45600;-82
2022/01/14 04:21:03;;;;;;;;;2.75;2.75;;;;;2.96;71.43;103297.63;5082530;28;46357;-81
2022/01/14 04:23:30;;;;;;;;;3.00;1.00;;;;;3.06;71.39;103321.56;5045864;28;45736;-82
2022/01/14 04:25:56;;;;;;;;;2.50;2.50;;;;;2.90;72.21;103292.91;5044877;28;45504;-82
2022/01/14 04:28:24;;;;;;;;;2.25;2.00;;;;;3.02;72.22;103315.25;5026419;28;45424;-82
2022/01/14 04:30:54;;;;;;;;;4.50;4.50;;;;;2.78;70.96;103269.63;5026076;28;46454;-82
2022/01/14 04:33:21;;;;;;;;;2.00;2.00;;;;;3.04;72.04;103308.56;5063157;28;45546;-82
2022/01/14 04:35:46;;;;;;;;;3.25;1.75;;;;;2.96;71.25;103289.00;5066607;28;45261;-82
2022/01/14 04:38:11;;;;;;;;;1.00;1.00;;;;;2.78;71.74;103259.34;5068623;28;45431;-81
2022/01/14 04:40:37;;;;;;;;;6.50;1.75;;;;;3.05;71.90;103302.63;5084633;28;46282;-82
2022/01/14 04:43:02;;;;;;;;;1.75;1.75;;;;;3.02;71.19;103299.81;5051657;28;45474;-82
2022/01/14 04:45:43;;;;;;;;;3.00;3.00;;;;;2.99;71.73;103308.19;5082732;28;45388;-82
2022/01/14 04:48:11;;;;;;;;;4.00;3.00;;;;;2.85;71.77;103291.59;5084309;28;45371;-81
2022/01/14 04:50:36;;;;;;;;;2.25;2.25;;;;;2.67;72.23;103257.56;5065645;28;48324;-81
2022/01/14 04:53:02;;;;;;;;;6.00;4.50;;;;;2.95;71.92;103301.00;5071097;28;45471;-81
2022/01/14 04:55:28;;;;;;;;;3.00;3.00;;;;;2.95;71.33;103298.41;5064242;28;45349;-81
2022/01/14 04:57:55;;;;;;;;;3.50;2.25;;;;;2.82;71.57;103272.47;5046256;28;45388;-82
2022/01/14 05:00:24;;;;;;;;;4.25;4.25;;;;;2.83;71.56;103267.44;5061915;28;45405;-81
2022/01/14 05:02:51;;;;;;;;;2.25;2.25;;;;;2.88;72.01;103286.72;5054944;28;45435;-81
2022/01/14 05:05:20;;;;;;;;;3.00;1.75;;;;;2.97;71.81;103280.53;5084319;28;45441;-81
2022/01/14 05:07:47;;;;;;;;;4.25;3.00;;;;;2.90;71.40;103272.31;5076927;28;45343;-81
2022/01/14 05:10:22;;;;;;;;;3.00;2.00;;;;;2.73;72.23;103254.59;5062464;28;45318;-82
2022/01/14 05:12:47;;;;;;;;;2.00;2.00;;;;;2.72;71.45;103270.78;5037057;28;45404;-82
2022/01/14 05:15:14;;;;;;;;;4.25;4.25;;;;;2.78;71.79;103277.34;5045749;28;45563;-82
2022/01/14 05:17:41;;;;;;;;;4.00;4.00;;;;;2.53;71.94;103231.63;5065504;28;45453;-82
2022/01/14 05:20:07;;;;;;;;;2.25;2.25;;;;;2.71;71.95;103261.28;5048340;28;48434;-82
2022/01/14 05:22:33;;;;;;;;;3.00;3.00;;;;;2.14;71.93;103158.13;5063008;28;45405;-82
2022/01/14 05:24:58;;;;;;;;;5.00;4.75;;;;;2.81;72.74;103273.25;5044357;28;45399;-82
2022/01/14 05:27:23;;;;;;;;;1.00;1.00;;;;;2.79;71.56;103273.13;5065504;28;45335;-82
2022/01/14 05:29:49;;;;;;;;;3.25;3.25;;;;;2.82;72.24;103280.19;5083457;28;45587;-82
2022/01/14 05:32:15;;;;;;;;;3.00;3.00;;;;;2.86;71.79;103288.28;5070844;28;45410;-83
2022/01/14 05:34:45;;;;;;;;;3.00;3.00;;;;;2.77;72.51;103272.06;5084490;28;45431;-81
2022/01/14 05:37:11;;;;;;;;;3.50;3.25;;;;;2.82;72.01;103287.91;5066480;28;45342;-82
2022/01/14 05:39:37;;;;;;;;;2.50;2.50;;;;;2.82;71.92;103290.47;5047706;28;47436;-82
2022/01/14 05:42:03;;;;;;;;;2.25;1.50;;;;;2.75;72.59;103286.47;5056980;28;45490;-82
2022/01/14 05:44:30;;;;;;;;;4.50;3.50;;;;;2.84;72.16;103304.34;5061563;28;45401;-82
2022/01/14 05:46:57;;;;;;;;;1.00;1.00;;;;;2.88;72.87;103303.84;5064116;28;45435;-83
2022/01/14 05:49:23;;;;;;;;;3.00;2.75;;;;;2.14;72.38;103182.16;5056425;28;45847;-83
2022/01/14 05:51:50;;;;;;;;;2.00;2.00;;;;;2.81;72.85;103271.53;5057606;28;45553;-83
2022/01/14 05:54:17;;;;;;;;;1.50;1.00;;;;;2.91;71.96;103276.66;5062692;28;45403;-83
2022/01/14 05:56:42;;;;;;;;;2.00;2.00;;;;;3.08;72.11;103283.94;5053161;28;45658;-83
2022/01/14 05:59:08;;;;;;;;;2.00;2.00;;;;;3.11;71.54;103295.41;5026035;28;48610;-85
2022/01/14 06:01:34;;;;;;;;;1.00;1.00;;;;;2.99;71.81;103266.09;5035798;28;45641;-78
2022/01/14 06:04:02;;;;;;;;;5.50;2.50;;;;;2.99;71.76;103264.44;5056112;28;45459;-81
2022/01/14 06:06:28;;;;;;;;;1.50;1.50;;;;;3.06;71.92;103260.66;5066951;28;45515;-81
2022/01/14 06:08:53;;;;;;;;;1.75;1.75;;;;;3.22;71.40;103295.38;5051612;28;45546;-79
2022/01/14 06:11:34;;;;;;;;;2.00;1.75;;;;;3.22;71.67;103285.06;5071339;28;45284;-80
2022/01/14 06:14:00;;;;;;;;;3.00;2.50;;;;;3.27;71.16;103287.25;5033005;28;45403;-81
2022/01/14 06:16:25;;;;;;;;;3.00;2.75;;;;;3.15;71.10;103266.56;5048002;28;45547;-81
2022/01/14 06:18:51;;;;;;;;;3.25;3.25;;;;;3.10;70.76;103257.59;5056381;28;46111;-81
2022/01/14 06:21:16;;;;;;;;;3.00;2.50;;;;;3.23;70.83;103279.13;5049693;28;45358;-82
2022/01/14 06:23:42;;;;;;;;;3.25;3.00;;;;;3.14;71.02;103272.50;5060578;28;45734;-86
2022/01/14 06:26:08;;;;;;;;;6.75;2.75;;;;;3.34;71.05;103304.06;5033969;28;45289;-81
2022/01/14 06:28:33;;;;;;;;;3.25;2.00;;;;;2.98;70.70;103231.75;5036802;28;47992;-83
2022/01/14 06:30:58;;;;;;;;;4.00;1.25;;;;;3.04;70.58;103255.38;5061985;28;45365;-82
2022/01/14 06:33:24;;;;;;;;;2.75;1.75;;;;;3.27;71.62;103282.09;5051733;28;45342;-82
2022/01/14 06:35:49;;;;;;;;;6.50;5.00;;;;;3.33;70.74;103304.84;5056153;28;45371;-82
2022/01/14 06:38:19;;;;;;;;;2.50;2.00;;;;;2.37;70.59;103136.00;5078791;28;45520;-83
2022/01/14 06:40:46;;;;;;;;;2.00;2.00;;;;;3.26;71.31;103303.47;5080500;28;45455;-84
2022/01/14 06:43:13;;;;;;;;;2.00;2.00;;;;;3.19;70.66;103282.25;5079630;28;45912;-84
2022/01/14 06:45:39;;;;;;;;;3.50;2.25;;;;;2.99;71.08;103246.41;5072916;28;45330;-83
2022/01/14 06:48:04;;;;;;;;;4.50;3.00;;;;;3.06;71.73;103250.38;5070230;28;46065;-82
2022/01/14 06:50:30;;;;;;;;;3.50;3.25;;;;;3.19;71.00;103272.88;5080694;28;45414;-83
2022/01/14 06:52:55;;;;;;;;;2.25;2.25;;;;;3.13;71.75;103264.66;5070939;28;45434;-83
2022/01/14 06:55:20;;;;;;;;;1.75;1.75;;;;;3.00;70.84;103237.03;5081064;28;45552;-81
2022/01/14 06:57:46;;;;;;;;;2.75;2.75;;;;;3.26;70.56;103288.03;5077812;28;46095;-81
2022/01/14 07:00:15;;;;;;;;;3.00;3.00;;;;;2.99;70.70;103245.50;5048650;28;45452;-78
2022/01/14 07:02:41;;;;;;;;;2.25;2.00;;;;;2.89;70.76;103231.00;5047469;28;45518;-81
2022/01/14 07:05:07;;;;;;;;;2.50;2.50;;;;;3.28;70.88;103286.44;5062000;28;45513;-80
2022/01/14 07:07:34;;;;;;;;;9.00;5.00;;;;;3.08;70.76;103248.81;5080541;28;46385;-84
2022/01/14 07:10:00;;;;;;;;;2.75;1.75;;;;;3.31;70.71;103284.91;5081261;28;45299;-83
2022/01/14 07:12:32;;;;;;;;;7.00;5.00;;;;;3.32;70.67;103285.03;5058982;28;45765;-81
2022/01/14 07:14:58;;;;;;;;;2.50;1.00;;;;;3.33;71.65;103289.41;5067759;28;47234;-81
2022/01/14 07:17:24;;;;;;;;;3.75;1.25;;;;;3.13;71.11;103239.78;5078136;28;46336;-85
2022/01/14 07:19:52;;;;;;;;;3.50;3.00;;;;;3.27;70.76;103261.50;5080919;28;45393;-85
2022/01/14 07:22:18;;;;;;;;;4.00;3.00;;;;;3.39;71.48;103281.25;5080447;28;45433;-85
2022/01/14 07:24:44;;;;;;;;;7.00;5.25;;;;;3.34;70.16;103269.72;5081278;28;45615;-84
2022/01/14 07:27:10;;;;;;;;;2.00;2.00;;;;;3.22;70.86;103260.22;5081366;28;45428;-87
2022/01/14 07:29:35;;;;;;;;;4.25;3.00;;;;;2.56;70.66;103150.31;5079971;28;45754;-84
2022/01/14 07:32:01;;;;;;;;;3.25;3.25;;;;;3.24;71.28;103266.41;5072355;28;45457;-84
2022/01/14 07:34:28;;;;;;;;;2.75;2.00;;;;;3.22;70.97;103270.50;5070968;28;45322;-84
2022/01/14 07:36:53;;;;;;;;;5.00;4.25;;;;;3.15;70.68;103268.22;5079779;28;46202;-85
2022/01/14 07:39:23;;;;;;;;;4.50;3.75;;;;;3.11;70.70;103269.66;5062548;28;45370;-84
2022/01/14 07:41:52;;;;;;;;;2.00;1.50;;;;;3.12;70.87;103270.53;5084852;28;45445;-85
2022/01/14 07:44:18;;;;;;;;;5.75;4.00;;;;;3.03;71.09;103256.19;5080652;28;45418;-85
2022/01/14 07:46:43;;;;;;;;;6.00;5.00;;;;;3.07;71.16;103262.47;5080034;28;45959;-85
2022/01/14 07:49:10;;;;;;;;;3.25;2.00;;;;;3.11;71.22;103266.19;5081969;28;45389;-84
2022/01/14 07:51:35;;;;;;;;;9.00;5.25;;;;;3.12;71.65;103274.03;5087967;28;45351;-84
2022/01/14 07:54:05;;;;;;;;;3.00;3.00;;;;;3.07;70.37;103272.78;5056326;28;45703;-80
2022/01/14 07:56:35;;;;;;;;;9.00;7.00;;;;;3.15;70.36;103275.94;5076209;28;46102;-85
2022/01/14 07:59:00;;;;;;;;;4.75;2.25;;;;;3.17;71.38;103287.28;5056830;27;45715;-82
2022/01/14 08:01:27;;;;;;;;;8.00;3.00;;;;;2.65;70.79;103197.38;5074031;27;46706;-85
2022/01/14 08:03:53;;;;;;;;;4.50;3.25;;;;;3.15;70.79;103276.84;5062212;28;45454;-85
2022/01/14 08:06:19;;;;;;;;;4.50;4.50;;;;;3.29;71.01;103293.44;5073267;28;48321;-85
2022/01/14 08:08:44;;;;;;;;;3.50;2.50;;;;;2.88;71.37;103226.66;5078276;28;45401;-82
2022/01/14 08:11:10;;;;;;;;;2.75;2.50;;;;;2.43;70.72;103140.72;5088298;28;45260;-83
2022/01/14 08:13:36;;;;;;;;;3.00;3.00;;;;;2.53;71.13;103169.00;5065011;28;45898;-85
2022/01/14 08:16:02;;;;;;;;;6.00;3.75;;;;;2.49;71.12;103159.22;5058403;28;48014;-85
2022/01/14 08:18:28;;;;;;;;;4.25;4.25;;;;;3.26;70.83;103303.47;5072722;28;45395;-86
2022/01/14 08:20:55;;;;;;;;;4.75;4.75;;;;;3.15;70.63;103279.44;5070378;27;45701;-85
2022/01/14 08:23:20;;;;;;;;;9.00;4.25;;;;;3.10;70.77;103273.03;5065884;28;45584;-84
2022/01/14 08:25:46;;;;;;;;;7.00;3.00;;;;;3.13;70.76;103267.22;5050985;28;47964;-84
2022/01/14 08:28:11;;;;;;;;;9.75;6.75;;;;;2.73;70.24;103211.75;5076530;28;45422;-85
2022/01/14 08:30:37;;;;;;;;;3.00;3.00;;;;;3.34;70.91;103304.06;5057369;28;45412;-82
2022/01/14 08:33:02;;;;;;;;;5.00;3.50;;;;;2.84;70.72;103204.00;5076889;27;45456;-82
2022/01/14 08:35:29;;;;;;;;;7.50;5.25;;;;;3.44;70.91;103294.50;5055464;28;46378;-82
2022/01/14 08:37:55;;;;;;;;;7.75;4.25;;;;;3.08;71.06;103235.97;5053514;28;45485;-80
2022/01/14 08:40:23;;;;;;;;;5.50;4.50;;;;;3.38;70.67;103279.47;5056850;28;45446;-86
2022/01/14 08:42:53;;;;;;;;;5.25;4.75;;;;;3.41;71.19;103282.28;5040626;28;45571;-86
2022/01/14 08:45:21;;;;;;;;;6.25;5.00;;;;;3.34;70.05;103278.31;5052886;28;45447;-85
2022/01/14 08:47:47;;;;;;;;;8.25;6.50;;;;;3.09;70.23;103235.16;5065289;28;45578;-86
2022/01/14 08:50:13;;;;;;;;;7.75;5.25;;;;;3.19;70.07;103252.28;5061647;28;45649;-81
2022/01/14 08:52:38;;;;;;;;;5.00;5.00;;;;;3.48;70.32;103299.13;5053741;28;45692;-83
2022/01/14 08:55:04;;;;;;;;;9.00;5.50;;;;;3.51;69.93;103300.28;5037913;28;48407;-83
2022/01/14 08:57:30;;;;;;;;;10.25;7.50;;;;;3.45;70.56;103292.06;5037146;28;45433;-87
2022/01/14 08:59:55;;;;;;;;;7.75;7.00;;;;;3.18;71.30;103235.00;5032525;28;45346;-88
2022/01/14 09:02:21;;;;;;;;;4.25;3.00;;;;;3.52;70.15;103271.16;5041618;28;45744;-84
2022/01/14 09:04:47;;;;;;;;;10.00;8.25;;;;;3.47;69.82;103250.97;5050491;28;45525;-83
2022/01/14 09:07:12;;;;;;;;;7.50;4.25;;;;;3.78;70.17;103308.38;5050848;28;45404;-83
2022/01/14 09:09:37;;;;;;;;;10.00;9.00;;;;;3.44;70.24;103238.75;5056683;28;45517;-81
2022/01/14 09:12:03;;;;;;;;;13.75;9.75;;;;;3.68;69.68;103265.50;5060915;28;45708;-82
2022/01/14 09:14:29;;;;;;;;;7.00;7.00;;;;;3.91;70.27;103287.03;5058692;28;46108;-83
2022/01/14 09:16:56;;;;;;;;;10.00;4.75;;;;;3.67;69.92;103231.91;5058676;28;45405;-86
2022/01/14 09:19:21;;;;;;;;;6.50;5.50;;;;;3.83;69.54;103264.91;5056999;28;45558;-84
2022/01/14 09:21:47;;;;;;;;;2.00;2.00;;;;;3.38;69.90;103174.81;5060280;28;45450;-84
2022/01/14 09:24:12;;;;;;;;;5.75;5.75;;;;;3.85;69.64;103263.34;5043199;28;45846;-84
2022/01/14 09:26:38;;;;;;;;;4.00;4.00;;;;;4.05;69.75;103293.22;5058872;28;45468;-83
2022/01/14 09:29:05;;;;;;;;;7.25;5.00;;;;;4.05;69.42;103295.81;5040008;28;45476;-82
2022/01/14 09:31:31;;;;;;;;;4.00;4.00;;;;;3.80;69.31;103224.34;5042999;28;46053;-83
2022/01/14 09:33:57;;;;;;;;;8.75;7.00;;;;;4.14;68.67;103272.41;5057240;28;45523;-82
2022/01/14 09:36:23;;;;;;;;;4.75;4.00;;;;;4.32;69.43;103297.81;5058178;28;45507;-83
2022/01/14 09:38:49;;;;;;;;;4.00;2.50;;;;;4.22;69.24;103264.38;5058871;28;45414;-83
2022/01/14 09:41:17;;;;;;;;;3.25;3.25;;;;;4.34;68.67;103269.53;5039961;28;45516;-83
2022/01/14 09:43:43;;;;;;;;;3.50;3.00;;;;;4.23;68.73;103241.25;5053137;28;46648;-84
2022/01/14 09:46:11;;;;;;;;;2.00;2.00;;;;;4.21;68.95;103231.63;5039769;28;45657;-83
2022/01/14 09:48:37;;;;;;;;;7.75;4.00;;;;;4.73;68.92;103305.97;5051682;28;45379;-83
2022/01/14 09:51:03;;;;;;;;;9.00;4.75;;;;;4.39;68.26;103233.03;5042890;28;45593;-83
2022/01/14 09:53:30;;;;;;;;;11.00;6.50;;;;;4.62;68.14;103257.03;5069056;28;46314;-84
2022/01/14 09:55:56;;;;;;;;;3.25;3.25;;;;;4.72;67.85;103266.38;5061883;28;45818;-84
2022/01/14 09:58:27;;;;;;;;;4.25;2.50;;;;;4.55;68.15;103226.41;5069049;28;45465;-83
2022/01/14 10:01:13;;;;;;;;;6.50;4.00;;;;;4.65;68.70;103234.03;5060997;28;45568;-85
2022/01/14 10:03:57;;;;;;;;;7.50;3.50;;;;;5.13;68.24;103297.66;5062286;28;46157;-83
2022/01/14 10:06:51;;;;;;;;;7.75;4.00;;;;;5.16;68.07;103293.63;5049770;28;45449;-83
2022/01/14 10:09:23;;;;;;;;;6.25;6.00;;;;;5.26;67.81;103304.59;5053030;28;47272;-83
2022/01/14 10:12:17;;;;;;;;;3.00;3.00;;;;;5.10;67.75;103257.03;5038908;28;45486;-85
2022/01/14 10:14:53;;;;;;;;;6.50;4.00;;;;;5.09;68.09;103252.66;5059294;28;45658;-83
2022/01/14 10:17:33;;;;;;;;;4.75;2.75;;;;;5.50;66.87;103300.31;5059703;28;45331;-85
2022/01/14 10:19:59;;;;;;;;;3.25;3.25;;;;;4.92;66.94;103172.31;5060234;28;45517;-84
2022/01/14 10:22:35;;;;;;;;;5.50;5.50;;;;;5.32;66.74;103241.38;5043760;28;45457;-84
2022/01/14 10:25:00;;;;;;;;;3.75;3.75;;;;;5.77;66.74;103295.28;5058555;28;45576;-84
2022/01/14 10:27:48;;;;;;;;;5.00;4.00;;;;;5.75;66.68;103280.44;5063929;28;45484;-84
2022/01/14 10:30:19;;;;;;;;;2.00;0.00;;;;;5.86;66.80;103265.69;5078724;28;45534;-84
2022/01/14 10:33:00;;;;;;;;;4.50;4.25;;;;;6.19;66.17;103302.47;5062577;28;45486;-84
2022/01/14 10:35:31;;;;;;;;;4.25;3.75;;;;;5.84;65.81;103211.28;5046096;28;45415;-84
2022/01/14 10:38:03;;;;;;;;;5.00;3.75;;;;;5.57;65.75;103144.00;5043004;28;45869;-84
2022/01/14 10:40:30;;;;;;;;;9.25;4.50;;;;;6.51;64.59;103301.13;5052592;28;45420;-85
2022/01/14 10:43:02;;;;;;;;;6.25;6.25;;;;;5.92;64.75;103185.97;5054080;28;45420;-84
2022/01/14 10:45:28;;;;;;;;;5.00;5.00;;;;;5.99;64.30;103192.44;5060977;28;46193;-85
2022/01/14 10:47:55;;;;;;;;;5.00;3.75;;;;;6.13;64.85;103209.81;5060758;28;45416;-85
2022/01/14 10:50:39;;;;;;;;;3.75;3.75;;;;;7.02;63.90;103282.84;5060623;28;45472;-84
2022/01/14 10:53:12;;;;;;;;;3.00;3.00;;;;;6.83;63.75;103226.41;5055012;28;45764;-83
2022/01/14 10:55:46;;;;;;;;;5.00;5.00;;;;;6.46;63.00;103144.66;5064097;28;45280;-82
2022/01/14 10:58:24;;;;;;;;;7.00;5.25;;;;;6.98;63.25;103213.50;5052580;28;45425;-84
2022/01/14 11:01:04;;;;;;;;;5.00;5.00;;;;;6.80;62.98;103182.19;5053937;28;45304;-84
2022/01/14 11:03:52;;;;;;;;;6.50;5.75;;;;;6.85;62.64;103183.34;5051318;28;45323;-84
2022/01/14 11:07:13;;;;;;;;;5.25;4.50;;;;;6.64;62.55;103129.41;5039111;28;46004;-84
2022/01/14 11:09:38;;;;;;;;;3.00;3.00;;;;;6.88;62.49;103159.34;5015731;28;45617;-85
2022/01/14 11:12:10;;;;;;;;;3.00;3.00;;;;;6.80;62.58;103145.94;5050703;28;45214;-85
2022/01/14 11:14:40;;;;;;;;;5.75;3.00;;;;;6.76;62.50;103123.22;5082841;28;45473;-84
2022/01/14 11:17:08;;;;;;;;;4.50;4.00;;;;;6.76;62.10;103121.53;5064825;28;46314;-85
2022/01/14 11:19:34;;;;;;;;;10.50;5.00;;;;;6.78;61.82;103129.38;5057876;28;45394;-84
2022/01/14 11:24:47;;;;;;;;;5.50;5.00;;;;;7.56;61.68;103238.69;5056669;28;45421;-84
2022/01/14 11:27:14;;;;;;;;;7.00;4.00;;;;;7.41;62.04;103212.69;5063480;28;47630;-85
2022/01/14 11:29:42;;;;;;;;;4.75;4.00;;;;;6.82;61.21;103114.16;5061617;28;45414;-84
2022/01/14 11:32:09;;;;;;;;;9.50;7.00;;;;;7.45;60.60;103225.03;5046984;28;45450;-89
2022/01/14 11:34:43;;;;;;;;;4.25;3.00;;;;;7.41;61.36;103209.25;5071272;27;45545;-85
2022/01/14 11:37:30;;;;;;;;;7.00;5.50;;;;;7.56;60.65;103230.00;5077170;28;46553;-84
2022/01/14 11:40:04;;;;;;;;;3.75;3.75;;;;;7.45;60.29;103193.06;5059511;28;45818;-85
2022/01/14 11:42:40;;;;;;;;;3.50;3.50;;;;;7.65;60.00;103219.28;5066401;28;45732;-85
2022/01/14 11:45:06;;;;;;;;;5.75;4.75;;;;;7.69;59.99;103224.75;5077173;28;45500;-81
2022/01/14 11:47:41;;;;;;;;;4.00;4.00;;;;;7.75;60.09;103219.03;5073221;28;45991;-81
2022/01/14 11:50:32;;;;;;;;;3.25;2.50;;;;;7.67;60.28;103194.38;5060708;28;45889;-83
2022/01/14 11:52:59;;;;;;;;;7.25;6.00;;;;;7.67;60.91;103213.41;5086671;27;45402;-84
2022/01/14 11:55:27;;;;;;;;;3.25;3.25;;;;;7.61;59.13;103213.03;5078718;27;45775;-84
2022/01/14 11:57:57;;;;;;;;;6.75;5.50;;;;;7.65;59.68;103207.22;5055739;28;48027;-83
2022/01/14 12:00:30;;;;;;;;;3.00;2.50;;;;;7.62;60.00;103200.97;5053570;28;45504;-83
2022/01/14 12:03:12;;;;;;;;;6.50;5.50;;;;;7.61;59.15;103187.13;5075027;28;45561;-83
2022/01/14 12:05:53;;;;;;;;;3.75;3.75;;;;;7.41;59.74;103165.19;5071949;28;46205;-82